sensor_id;sensor_type;location;lat;lon;timestamp;P1;durP1;ratioP1;P2;durP2;ratioP2
23394;SDS011;11870;53.084;18.206;2023-05-19T00:01:33;18.52;;;7.22;;
23394;SDS011;11870;53.084;18.206;2023-05-19T00:04:02;16.50;;;7.32;;
23394;SDS011;11870;53.084;18.206;2023-05-19T00:06:30;27.65;;;10.90;;
23394;SDS011;11870;53.084;18.206;2023-05-19T00:09:07;20.65;;;7.80;;
23394;SDS011;11870;53.084;18.206;2023-05-19T00:11:34;18.48;;;6.75;;
23394;SDS011;11870;53.084;18.206;2023-05-19T00:14:02;52.15;;;17.83;;
23394;SDS011;11870;53.084;18.206;2023-05-19T00:16:30;13.43;;;5.47;;
23394;SDS011;11870;53.084;18.206;2023-05-19T00:18:57;15.25;;;5.40;;
23394;SDS011;11870;53.084;18.206;2023-05-19T00:21:27;11.05;;;4.20;;
23394;SDS011;11870;53.084;18.206;2023-05-19T00:23:54;8.00;;;3.53;;
23394;SDS011;11870;53.084;18.206;2023-05-19T00:26:20;7.72;;;3.17;;
23394;SDS011;11870;53.084;18.206;2023-05-19T00:28:51;5.65;;;2.60;;
23394;SDS011;11870;53.084;18.206;2023-05-19T00:31:17;5.40;;;2.88;;
23394;SDS011;11870;53.084;18.206;2023-05-19T00:33:44;4.78;;;2.28;;
23394;SDS011;11870;53.084;18.206;2023-05-19T00:36:10;5.10;;;2.30;;
23394;SDS011;11870;53.084;18.206;2023-05-19T00:38:37;15.50;;;5.70;;
23394;SDS011;11870;53.084;18.206;2023-05-19T00:41:03;11.45;;;3.80;;
23394;SDS011;11870;53.084;18.206;2023-05-19T00:43:31;16.27;;;5.13;;
23394;SDS011;11870;53.084;18.206;2023-05-19T00:46:00;12.82;;;3.50;;
23394;SDS011;11870;53.084;18.206;2023-05-19T00:48:27;6.50;;;2.25;;
23394;SDS011;11870;53.084;18.206;2023-05-19T00:50:53;2.78;;;1.33;;
23394;SDS011;11870;53.084;18.206;2023-05-19T00:53:29;4.32;;;1.10;;
23394;SDS011;11870;53.084;18.206;2023-05-19T00:55:56;1.55;;;1.00;;
23394;SDS011;11870;53.084;18.206;2023-05-19T00:58:24;3.95;;;1.00;;
23394;SDS011;11870;53.084;18.206;2023-05-19T01:00:58;4.15;;;1.10;;
23394;SDS011;11870;53.084;18.206;2023-05-19T01:03:31;2.20;;;1.00;;
23394;SDS011;11870;53.084;18.206;2023-05-19T01:05:59;2.33;;;1.00;;
23394;SDS011;11870;53.084;18.206;2023-05-19T01:08:33;2.80;;;1.00;;
23394;SDS011;11870;53.084;18.206;2023-05-19T01:11:00;2.97;;;1.02;;
23394;SDS011;11870;53.084;18.206;2023-05-19T01:13:27;5.32;;;1.98;;
23394;SDS011;11870;53.084;18.206;2023-05-19T01:18:39;6.60;;;2.00;;
23394;SDS011;11870;53.084;18.206;2023-05-19T01:21:25;7.30;;;2.22;;
23394;SDS011;11870;53.084;18.206;2023-05-19T01:24:22;6.00;;;2.08;;
23394;SDS011;11870;53.084;18.206;2023-05-19T01:32:56;4.28;;;1.38;;
23394;SDS011;11870;53.084;18.206;2023-05-19T01:35:25;3.75;;;1.30;;
23394;SDS011;11870;53.084;18.206;2023-05-19T01:37:53;3.13;;;1.23;;
23394;SDS011;11870;53.084;18.206;2023-05-19T01:40:23;1.90;;;1.20;;
23394;SDS011;11870;53.084;18.206;2023-05-19T01:42:51;1.55;;;1.08;;
23394;SDS011;11870;53.084;18.206;2023-05-19T01:45:19;1.98;;;0.93;;
23394;SDS011;11870;53.084;18.206;2023-05-19T01:47:46;2.33;;;1.10;;
23394;SDS011;11870;53.084;18.206;2023-05-19T01:50:15;2.53;;;1.23;;
23394;SDS011;11870;53.084;18.206;2023-05-19T01:52:41;3.47;;;1.45;;
23394;SDS011;11870;53.084;18.206;2023-05-19T01:55:07;2.65;;;1.25;;
23394;SDS011;11870;53.084;18.206;2023-05-19T01:57:39;1.67;;;1.00;;
23394;SDS011;11870;53.084;18.206;2023-05-19T02:05:54;2.88;;;2.05;;
23394;SDS011;11870;53.084;18.206;2023-05-19T02:11:18;2.88;;;1.33;;
23394;SDS011;11870;53.084;18.206;2023-05-19T02:14:17;1.65;;;0.90;;
23394;SDS011;11870;53.084;18.206;2023-05-19T02:16:49;1.83;;;1.00;;
23394;SDS011;11870;53.084;18.206;2023-05-19T02:19:23;2.22;;;0.98;;
23394;SDS011;11870;53.084;18.206;2023-05-19T02:21:51;1.55;;;1.10;;
23394;SDS011;11870;53.084;18.206;2023-05-19T02:24:17;3.83;;;1.00;;
23394;SDS011;11870;53.084;18.206;2023-05-19T02:26:44;5.72;;;1.10;;
23394;SDS011;11870;53.084;18.206;2023-05-19T02:29:10;2.28;;;0.93;;
23394;SDS011;11870;53.084;18.206;2023-05-19T02:31:37;4.38;;;1.05;;
23394;SDS011;11870;53.084;18.206;2023-05-19T02:34:02;2.97;;;1.10;;
23394;SDS011;11870;53.084;18.206;2023-05-19T02:36:30;2.25;;;1.15;;
23394;SDS011;11870;53.084;18.206;2023-05-19T02:38:59;3.38;;;1.30;;
23394;SDS011;11870;53.084;18.206;2023-05-19T02:41:26;2.00;;;1.00;;
23394;SDS011;11870;53.084;18.206;2023-05-19T02:43:52;2.05;;;1.00;;
23394;SDS011;11870;53.084;18.206;2023-05-19T02:46:18;1.95;;;1.05;;
23394;SDS011;11870;53.084;18.206;2023-05-19T02:48:44;1.58;;;0.88;;
23394;SDS011;11870;53.084;18.206;2023-05-19T02:51:10;3.60;;;1.30;;
23394;SDS011;11870;53.084;18.206;2023-05-19T02:53:36;2.40;;;1.17;;
23394;SDS011;11870;53.084;18.206;2023-05-19T02:56:02;1.88;;;1.10;;
23394;SDS011;11870;53.084;18.206;2023-05-19T02:58:29;2.95;;;1.00;;
23394;SDS011;11870;53.084;18.206;2023-05-19T03:00:55;2.20;;;1.17;;
23394;SDS011;11870;53.084;18.206;2023-05-19T03:03:21;2.45;;;1.30;;
23394;SDS011;11870;53.084;18.206;2023-05-19T03:05:47;2.78;;;1.10;;
23394;SDS011;11870;53.084;18.206;2023-05-19T03:08:13;1.90;;;1.05;;
23394;SDS011;11870;53.084;18.206;2023-05-19T03:10:39;1.65;;;1.20;;
23394;SDS011;11870;53.084;18.206;2023-05-19T03:13:04;2.88;;;1.30;;
23394;SDS011;11870;53.084;18.206;2023-05-19T03:15:31;4.10;;;1.13;;
23394;SDS011;11870;53.084;18.206;2023-05-19T03:17:57;4.93;;;1.10;;
23394;SDS011;11870;53.084;18.206;2023-05-19T03:20:23;3.42;;;1.17;;
23394;SDS011;11870;53.084;18.206;2023-05-19T03:22:49;2.15;;;1.30;;
23394;SDS011;11870;53.084;18.206;2023-05-19T03:25:15;1.95;;;1.10;;
23394;SDS011;11870;53.084;18.206;2023-05-19T03:27:41;4.57;;;1.00;;
23394;SDS011;11870;53.084;18.206;2023-05-19T03:30:07;2.65;;;1.05;;
23394;SDS011;11870;53.084;18.206;2023-05-19T03:32:34;4.25;;;1.40;;
23394;SDS011;11870;53.084;18.206;2023-05-19T03:35:03;3.90;;;1.42;;
23394;SDS011;11870;53.084;18.206;2023-05-19T03:37:29;3.72;;;1.52;;
23394;SDS011;11870;53.084;18.206;2023-05-19T03:39:57;2.00;;;1.38;;
23394;SDS011;11870;53.084;18.206;2023-05-19T03:42:23;3.58;;;1.23;;
23394;SDS011;11870;53.084;18.206;2023-05-19T03:44:50;5.05;;;1.30;;
23394;SDS011;11870;53.084;18.206;2023-05-19T03:47:16;6.05;;;1.77;;
23394;SDS011;11870;53.084;18.206;2023-05-19T03:49:42;1.95;;;1.20;;
23394;SDS011;11870;53.084;18.206;2023-05-19T03:52:08;7.35;;;3.05;;
23394;SDS011;11870;53.084;18.206;2023-05-19T03:54:34;5.18;;;2.08;;
23394;SDS011;11870;53.084;18.206;2023-05-19T03:57:00;5.97;;;1.90;;
23394;SDS011;11870;53.084;18.206;2023-05-19T03:59:27;3.50;;;1.63;;
23394;SDS011;11870;53.084;18.206;2023-05-19T04:01:52;5.85;;;1.75;;
23394;SDS011;11870;53.084;18.206;2023-05-19T04:04:19;3.25;;;1.50;;
23394;SDS011;11870;53.084;18.206;2023-05-19T04:06:45;4.10;;;1.70;;
23394;SDS011;11870;53.084;18.206;2023-05-19T04:09:14;3.17;;;1.70;;
23394;SDS011;11870;53.084;18.206;2023-05-19T04:11:40;2.00;;;1.30;;
23394;SDS011;11870;53.084;18.206;2023-05-19T04:14:07;2.97;;;1.38;;
23394;SDS011;11870;53.084;18.206;2023-05-19T04:16:33;2.92;;;1.35;;
23394;SDS011;11870;53.084;18.206;2023-05-19T04:19:00;3.53;;;1.40;;
23394;SDS011;11870;53.084;18.206;2023-05-19T04:21:26;6.15;;;3.00;;
23394;SDS011;11870;53.084;18.206;2023-05-19T04:23:52;21.77;;;7.50;;
23394;SDS011;11870;53.084;18.206;2023-05-19T04:26:18;11.27;;;3.78;;
23394;SDS011;11870;53.084;18.206;2023-05-19T04:28:46;11.65;;;4.28;;
23394;SDS011;11870;53.084;18.206;2023-05-19T04:31:12;3.92;;;1.73;;
23394;SDS011;11870;53.084;18.206;2023-05-19T04:33:39;6.15;;;2.30;;
23394;SDS011;11870;53.084;18.206;2023-05-19T04:36:08;10.77;;;4.07;;
23394;SDS011;11870;53.084;18.206;2023-05-19T04:38:36;15.10;;;6.93;;
23394;SDS011;11870;53.084;18.206;2023-05-19T04:41:04;6.47;;;2.75;;
23394;SDS011;11870;53.084;18.206;2023-05-19T04:43:34;9.20;;;3.88;;
23394;SDS011;11870;53.084;18.206;2023-05-19T04:46:01;3.25;;;1.80;;
23394;SDS011;11870;53.084;18.206;2023-05-19T04:48:30;9.63;;;3.45;;
23394;SDS011;11870;53.084;18.206;2023-05-19T04:50:57;7.03;;;2.13;;
23394;SDS011;11870;53.084;18.206;2023-05-19T04:53:28;7.80;;;2.67;;
23394;SDS011;11870;53.084;18.206;2023-05-19T04:55:54;4.25;;;1.80;;
23394;SDS011;11870;53.084;18.206;2023-05-19T04:58:25;12.82;;;3.15;;
23394;SDS011;11870;53.084;18.206;2023-05-19T05:00:51;12.30;;;4.70;;
23394;SDS011;11870;53.084;18.206;2023-05-19T05:03:23;7.93;;;3.22;;
23394;SDS011;11870;53.084;18.206;2023-05-19T05:05:49;7.97;;;3.78;;
23394;SDS011;11870;53.084;18.206;2023-05-19T05:08:15;8.68;;;3.63;;
23394;SDS011;11870;53.084;18.206;2023-05-19T05:10:47;8.65;;;3.33;;
23394;SDS011;11870;53.084;18.206;2023-05-19T05:13:17;2.50;;;1.38;;
23394;SDS011;11870;53.084;18.206;2023-05-19T05:15:47;6.75;;;1.95;;
23394;SDS011;11870;53.084;18.206;2023-05-19T05:18:14;3.70;;;2.00;;
23394;SDS011;11870;53.084;18.206;2023-05-19T05:20:43;1.90;;;1.13;;
23394;SDS011;11870;53.084;18.206;2023-05-19T05:23:11;3.58;;;1.40;;
23394;SDS011;11870;53.084;18.206;2023-05-19T05:25:39;4.25;;;1.90;;
23394;SDS011;11870;53.084;18.206;2023-05-19T05:28:06;2.08;;;1.40;;
23394;SDS011;11870;53.084;18.206;2023-05-19T05:30:35;3.88;;;1.70;;
23394;SDS011;11870;53.084;18.206;2023-05-19T05:33:01;8.13;;;3.60;;
23394;SDS011;11870;53.084;18.206;2023-05-19T05:35:27;4.95;;;2.63;;
23394;SDS011;11870;53.084;18.206;2023-05-19T05:37:53;10.02;;;3.83;;
23394;SDS011;11870;53.084;18.206;2023-05-19T05:40:20;2.60;;;1.42;;
23394;SDS011;11870;53.084;18.206;2023-05-19T05:42:46;6.07;;;2.30;;
23394;SDS011;11870;53.084;18.206;2023-05-19T05:45:12;4.03;;;2.00;;
23394;SDS011;11870;53.084;18.206;2023-05-19T05:47:38;2.50;;;1.60;;
23394;SDS011;11870;53.084;18.206;2023-05-19T05:50:06;5.53;;;1.88;;
23394;SDS011;11870;53.084;18.206;2023-05-19T05:52:34;4.47;;;1.92;;
23394;SDS011;11870;53.084;18.206;2023-05-19T05:55:04;2.95;;;1.58;;
23394;SDS011;11870;53.084;18.206;2023-05-19T05:57:31;4.05;;;1.90;;
23394;SDS011;11870;53.084;18.206;2023-05-19T05:59:59;3.33;;;1.58;;
23394;SDS011;11870;53.084;18.206;2023-05-19T06:02:28;3.80;;;1.40;;
23394;SDS011;11870;53.084;18.206;2023-05-19T06:04:55;4.50;;;1.60;;
23394;SDS011;11870;53.084;18.206;2023-05-19T06:07:21;3.33;;;1.70;;
23394;SDS011;11870;53.084;18.206;2023-05-19T06:09:50;3.15;;;1.70;;
23394;SDS011;11870;53.084;18.206;2023-05-19T06:12:21;6.18;;;3.78;;
23394;SDS011;11870;53.084;18.206;2023-05-19T06:14:47;4.60;;;1.90;;
23394;SDS011;11870;53.084;18.206;2023-05-19T06:17:13;4.15;;;2.03;;
23394;SDS011;11870;53.084;18.206;2023-05-19T06:19:39;5.60;;;2.30;;
23394;SDS011;11870;53.084;18.206;2023-05-19T06:22:05;3.10;;;1.90;;
23394;SDS011;11870;53.084;18.206;2023-05-19T06:24:31;4.72;;;2.00;;
23394;SDS011;11870;53.084;18.206;2023-05-19T06:26:57;4.70;;;2.00;;
23394;SDS011;11870;53.084;18.206;2023-05-19T06:29:22;2.40;;;1.40;;
23394;SDS011;11870;53.084;18.206;2023-05-19T06:31:48;6.55;;;3.30;;
23394;SDS011;11870;53.084;18.206;2023-05-19T06:34:14;4.95;;;1.95;;
23394;SDS011;11870;53.084;18.206;2023-05-19T06:36:42;2.75;;;1.70;;
23394;SDS011;11870;53.084;18.206;2023-05-19T06:39:07;2.03;;;1.50;;
23394;SDS011;11870;53.084;18.206;2023-05-19T06:41:33;3.97;;;1.60;;
23394;SDS011;11870;53.084;18.206;2023-05-19T06:43:59;4.10;;;1.40;;
23394;SDS011;11870;53.084;18.206;2023-05-19T06:46:25;2.95;;;1.67;;
23394;SDS011;11870;53.084;18.206;2023-05-19T06:48:51;3.53;;;2.20;;
23394;SDS011;11870;53.084;18.206;2023-05-19T06:51:17;2.05;;;1.40;;
23394;SDS011;11870;53.084;18.206;2023-05-19T06:53:46;3.75;;;2.25;;
23394;SDS011;11870;53.084;18.206;2023-05-19T06:56:13;3.85;;;1.83;;
23394;SDS011;11870;53.084;18.206;2023-05-19T06:58:40;1.98;;;1.60;;
23394;SDS011;11870;53.084;18.206;2023-05-19T07:01:06;3.92;;;1.70;;
23394;SDS011;11870;53.084;18.206;2023-05-19T07:03:32;3.00;;;1.80;;
23394;SDS011;11870;53.084;18.206;2023-05-19T07:05:58;3.72;;;2.08;;
23394;SDS011;11870;53.084;18.206;2023-05-19T07:08:24;3.88;;;1.98;;
23394;SDS011;11870;53.084;18.206;2023-05-19T07:10:52;2.72;;;1.70;;
23394;SDS011;11870;53.084;18.206;2023-05-19T07:13:19;6.60;;;1.77;;
23394;SDS011;11870;53.084;18.206;2023-05-19T07:15:45;2.63;;;1.45;;
23394;SDS011;11870;53.084;18.206;2023-05-19T07:18:13;2.97;;;1.65;;
23394;SDS011;11870;53.084;18.206;2023-05-19T07:20:40;4.15;;;1.77;;
23394;SDS011;11870;53.084;18.206;2023-05-19T07:23:06;2.67;;;1.67;;
23394;SDS011;11870;53.084;18.206;2023-05-19T07:25:32;4.68;;;2.30;;
23394;SDS011;11870;53.084;18.206;2023-05-19T07:27:59;4.45;;;1.70;;
23394;SDS011;11870;53.084;18.206;2023-05-19T07:30:26;3.22;;;2.03;;
23394;SDS011;11870;53.084;18.206;2023-05-19T07:32:52;4.22;;;2.10;;
23394;SDS011;11870;53.084;18.206;2023-05-19T07:35:18;4.18;;;1.77;;
23394;SDS011;11870;53.084;18.206;2023-05-19T07:37:47;9.48;;;2.15;;
23394;SDS011;11870;53.084;18.206;2023-05-19T07:40:13;2.70;;;1.60;;
23394;SDS011;11870;53.084;18.206;2023-05-19T07:42:39;4.55;;;1.80;;
23394;SDS011;11870;53.084;18.206;2023-05-19T07:45:06;4.05;;;2.17;;
23394;SDS011;11870;53.084;18.206;2023-05-19T07:47:32;2.80;;;1.75;;
23394;SDS011;11870;53.084;18.206;2023-05-19T07:49:58;5.72;;;2.10;;
23394;SDS011;11870;53.084;18.206;2023-05-19T07:52:24;2.65;;;1.60;;
23394;SDS011;11870;53.084;18.206;2023-05-19T07:54:50;3.00;;;1.92;;
23394;SDS011;11870;53.084;18.206;2023-05-19T07:57:17;4.03;;;2.05;;
23394;SDS011;11870;53.084;18.206;2023-05-19T07:59:43;4.20;;;2.28;;
23394;SDS011;11870;53.084;18.206;2023-05-19T08:02:09;4.28;;;1.80;;
23394;SDS011;11870;53.084;18.206;2023-05-19T08:04:36;4.55;;;2.17;;
23394;SDS011;11870;53.084;18.206;2023-05-19T08:07:01;6.28;;;2.42;;
23394;SDS011;11870;53.084;18.206;2023-05-19T08:09:28;4.60;;;2.20;;
23394;SDS011;11870;53.084;18.206;2023-05-19T08:11:54;3.45;;;1.80;;
23394;SDS011;11870;53.084;18.206;2023-05-19T08:14:20;5.43;;;2.20;;
23394;SDS011;11870;53.084;18.206;2023-05-19T08:16:47;5.35;;;1.80;;
23394;SDS011;11870;53.084;18.206;2023-05-19T08:19:13;3.38;;;1.92;;
23394;SDS011;11870;53.084;18.206;2023-05-19T08:21:39;5.63;;;2.00;;
23394;SDS011;11870;53.084;18.206;2023-05-19T08:24:07;3.03;;;1.80;;
23394;SDS011;11870;53.084;18.206;2023-05-19T08:26:33;3.55;;;1.90;;
23394;SDS011;11870;53.084;18.206;2023-05-19T08:28:59;4.10;;;2.00;;
23394;SDS011;11870;53.084;18.206;2023-05-19T08:31:25;2.88;;;1.85;;
23394;SDS011;11870;53.084;18.206;2023-05-19T08:33:51;3.78;;;2.00;;
23394;SDS011;11870;53.084;18.206;2023-05-19T08:36:17;5.40;;;2.53;;
23394;SDS011;11870;53.084;18.206;2023-05-19T08:38:43;4.13;;;2.10;;
23394;SDS011;11870;53.084;18.206;2023-05-19T08:41:09;5.43;;;2.38;;
23394;SDS011;11870;53.084;18.206;2023-05-19T08:43:35;4.15;;;1.98;;
23394;SDS011;11870;53.084;18.206;2023-05-19T08:46:01;4.93;;;2.50;;
23394;SDS011;11870;53.084;18.206;2023-05-19T08:48:29;4.20;;;2.20;;
23394;SDS011;11870;53.084;18.206;2023-05-19T08:54:08;6.50;;;2.33;;
23394;SDS011;11870;53.084;18.206;2023-05-19T08:56:39;3.83;;;2.22;;
23394;SDS011;11870;53.084;18.206;2023-05-19T08:59:10;3.53;;;2.20;;
23394;SDS011;11870;53.084;18.206;2023-05-19T09:01:38;4.53;;;2.10;;
23394;SDS011;11870;53.084;18.206;2023-05-19T09:04:05;3.33;;;1.98;;
23394;SDS011;11870;53.084;18.206;2023-05-19T09:06:32;2.95;;;1.83;;
23394;SDS011;11870;53.084;18.206;2023-05-19T09:08:58;4.97;;;2.20;;
23394;SDS011;11870;53.084;18.206;2023-05-19T09:11:23;3.80;;;1.95;;
23394;SDS011;11870;53.084;18.206;2023-05-19T09:13:50;5.30;;;2.08;;
23394;SDS011;11870;53.084;18.206;2023-05-19T09:16:16;3.72;;;2.00;;
23394;SDS011;11870;53.084;18.206;2023-05-19T09:18:55;4.38;;;2.03;;
23394;SDS011;11870;53.084;18.206;2023-05-19T09:21:28;3.60;;;2.20;;
23394;SDS011;11870;53.084;18.206;2023-05-19T09:24:05;3.20;;;1.90;;
23394;SDS011;11870;53.084;18.206;2023-05-19T09:26:39;5.45;;;2.20;;
23394;SDS011;11870;53.084;18.206;2023-05-19T09:29:13;5.65;;;2.55;;
23394;SDS011;11870;53.084;18.206;2023-05-19T09:31:53;4.80;;;2.20;;
23394;SDS011;11870;53.084;18.206;2023-05-19T09:34:24;4.03;;;2.30;;
23394;SDS011;11870;53.084;18.206;2023-05-19T09:36:51;6.07;;;2.35;;
23394;SDS011;11870;53.084;18.206;2023-05-19T09:39:19;4.20;;;2.20;;
23394;SDS011;11870;53.084;18.206;2023-05-19T09:41:46;3.90;;;1.80;;
23394;SDS011;11870;53.084;18.206;2023-05-19T09:44:22;5.15;;;2.33;;
23394;SDS011;11870;53.084;18.206;2023-05-19T09:46:49;4.72;;;2.70;;
23394;SDS011;11870;53.084;18.206;2023-05-19T09:49:19;4.25;;;2.08;;
23394;SDS011;11870;53.084;18.206;2023-05-19T09:51:54;6.50;;;2.30;;
23394;SDS011;11870;53.084;18.206;2023-05-19T09:54:21;3.47;;;2.00;;
23394;SDS011;11870;53.084;18.206;2023-05-19T09:56:57;5.03;;;2.25;;
23394;SDS011;11870;53.084;18.206;2023-05-19T09:59:28;4.65;;;2.40;;
23394;SDS011;11870;53.084;18.206;2023-05-19T10:01:56;5.18;;;1.90;;
23394;SDS011;11870;53.084;18.206;2023-05-19T10:04:24;3.25;;;1.95;;
23394;SDS011;11870;53.084;18.206;2023-05-19T10:06:51;10.00;;;3.28;;
23394;SDS011;11870;53.084;18.206;2023-05-19T10:09:22;5.07;;;2.40;;
23394;SDS011;11870;53.084;18.206;2023-05-19T10:11:52;4.85;;;2.30;;
23394;SDS011;11870;53.084;18.206;2023-05-19T10:14:22;4.00;;;2.15;;
23394;SDS011;11870;53.084;18.206;2023-05-19T10:16:52;5.45;;;2.40;;
23394;SDS011;11870;53.084;18.206;2023-05-19T10:19:20;5.10;;;1.92;;
23394;SDS011;11870;53.084;18.206;2023-05-19T10:21:48;3.35;;;2.20;;
23394;SDS011;11870;53.084;18.206;2023-05-19T10:24:15;5.60;;;2.53;;
23394;SDS011;11870;53.084;18.206;2023-05-19T10:27:04;6.85;;;2.30;;
23394;SDS011;11870;53.084;18.206;2023-05-19T10:29:33;3.33;;;2.60;;
23394;SDS011;11870;53.084;18.206;2023-05-19T10:32:03;3.40;;;2.38;;
23394;SDS011;11870;53.084;18.206;2023-05-19T10:39:53;4.63;;;2.63;;
23394;SDS011;11870;53.084;18.206;2023-05-19T10:42:43;4.68;;;2.30;;
23394;SDS011;11870;53.084;18.206;2023-05-19T10:45:18;3.17;;;2.13;;
23394;SDS011;11870;53.084;18.206;2023-05-19T10:47:48;6.82;;;2.60;;
23394;SDS011;11870;53.084;18.206;2023-05-19T10:50:15;3.95;;;2.60;;
23394;SDS011;11870;53.084;18.206;2023-05-19T10:52:41;5.13;;;2.55;;
23394;SDS011;11870;53.084;18.206;2023-05-19T10:55:11;7.50;;;2.65;;
23394;SDS011;11870;53.084;18.206;2023-05-19T10:57:54;4.78;;;2.40;;
23394;SDS011;11870;53.084;18.206;2023-05-19T11:00:26;4.65;;;2.60;;
23394;SDS011;11870;53.084;18.206;2023-05-19T11:02:53;4.95;;;2.10;;
23394;SDS011;11870;53.084;18.206;2023-05-19T11:05:43;3.25;;;2.17;;
23394;SDS011;11870;53.084;18.206;2023-05-19T11:08:15;3.40;;;2.30;;
23394;SDS011;11870;53.084;18.206;2023-05-19T11:10:42;5.43;;;2.78;;
23394;SDS011;11870;53.084;18.206;2023-05-19T11:13:17;8.15;;;2.70;;
23394;SDS011;11870;53.084;18.206;2023-05-19T11:15:47;4.80;;;2.78;;
23394;SDS011;11870;53.084;18.206;2023-05-19T11:18:14;6.28;;;2.55;;
23394;SDS011;11870;53.084;18.206;2023-05-19T11:20:40;3.92;;;2.80;;
23394;SDS011;11870;53.084;18.206;2023-05-19T11:23:07;4.18;;;2.05;;
23394;SDS011;11870;53.084;18.206;2023-05-19T11:25:41;5.75;;;2.30;;
23394;SDS011;11870;53.084;18.206;2023-05-19T11:28:10;5.25;;;2.35;;
23394;SDS011;11870;53.084;18.206;2023-05-19T11:30:38;3.33;;;2.10;;
23394;SDS011;11870;53.084;18.206;2023-05-19T11:33:06;3.70;;;1.88;;
23394;SDS011;11870;53.084;18.206;2023-05-19T11:35:33;3.08;;;1.98;;
23394;SDS011;11870;53.084;18.206;2023-05-19T11:38:00;2.40;;;1.70;;
23394;SDS011;11870;53.084;18.206;2023-05-19T11:40:28;3.58;;;2.10;;
23394;SDS011;11870;53.084;18.206;2023-05-19T11:42:54;2.53;;;1.73;;
23394;SDS011;11870;53.084;18.206;2023-05-19T11:45:24;3.60;;;1.83;;
23394;SDS011;11870;53.084;18.206;2023-05-19T11:47:50;5.43;;;4.05;;
23394;SDS011;11870;53.084;18.206;2023-05-19T11:50:16;4.85;;;2.08;;
23394;SDS011;11870;53.084;18.206;2023-05-19T11:52:43;3.42;;;2.47;;
23394;SDS011;11870;53.084;18.206;2023-05-19T11:55:13;4.18;;;2.38;;
23394;SDS011;11870;53.084;18.206;2023-05-19T11:57:40;7.05;;;4.20;;
23394;SDS011;11870;53.084;18.206;2023-05-19T12:00:06;15.98;;;6.55;;
23394;SDS011;11870;53.084;18.206;2023-05-19T12:02:33;36.65;;;15.55;;
23394;SDS011;11870;53.084;18.206;2023-05-19T12:05:01;18.80;;;9.05;;
23394;SDS011;11870;53.084;18.206;2023-05-19T12:07:27;7.70;;;6.90;;
23394;SDS011;11870;53.084;18.206;2023-05-19T12:09:53;12.20;;;10.30;;
23394;SDS011;11870;53.084;18.206;2023-05-19T12:12:20;6.18;;;3.80;;
23394;SDS011;11870;53.084;18.206;2023-05-19T12:14:50;4.35;;;2.25;;
23394;SDS011;11870;53.084;18.206;2023-05-19T12:17:18;4.47;;;2.35;;
23394;SDS011;11870;53.084;18.206;2023-05-19T12:19:48;6.28;;;2.50;;
23394;SDS011;11870;53.084;18.206;2023-05-19T12:22:15;3.55;;;1.98;;
23394;SDS011;11870;53.084;18.206;2023-05-19T12:24:42;2.67;;;1.92;;
23394;SDS011;11870;53.084;18.206;2023-05-19T12:27:09;5.28;;;3.08;;
23394;SDS011;11870;53.084;18.206;2023-05-19T12:29:39;5.93;;;2.80;;
23394;SDS011;11870;53.084;18.206;2023-05-19T12:32:08;5.68;;;2.22;;
23394;SDS011;11870;53.084;18.206;2023-05-19T12:34:37;3.70;;;2.22;;
23394;SDS011;11870;53.084;18.206;2023-05-19T12:37:03;2.35;;;1.83;;
23394;SDS011;11870;53.084;18.206;2023-05-19T12:39:30;3.20;;;2.30;;
23394;SDS011;11870;53.084;18.206;2023-05-19T12:42:00;3.63;;;2.00;;
23394;SDS011;11870;53.084;18.206;2023-05-19T12:44:27;5.47;;;2.53;;
23394;SDS011;11870;53.084;18.206;2023-05-19T12:46:58;3.67;;;1.90;;
23394;SDS011;11870;53.084;18.206;2023-05-19T12:49:25;4.47;;;2.90;;
23394;SDS011;11870;53.084;18.206;2023-05-19T12:51:51;5.32;;;2.20;;
23394;SDS011;11870;53.084;18.206;2023-05-19T12:54:19;5.50;;;2.58;;
23394;SDS011;11870;53.084;18.206;2023-05-19T12:56:49;5.13;;;3.50;;
23394;SDS011;11870;53.084;18.206;2023-05-19T12:59:21;4.85;;;4.35;;
23394;SDS011;11870;53.084;18.206;2023-05-19T13:01:54;5.35;;;2.10;;
23394;SDS011;11870;53.084;18.206;2023-05-19T13:04:22;3.58;;;2.30;;
23394;SDS011;11870;53.084;18.206;2023-05-19T13:06:52;5.25;;;3.25;;
23394;SDS011;11870;53.084;18.206;2023-05-19T13:09:18;3.08;;;2.25;;
23394;SDS011;11870;53.084;18.206;2023-05-19T13:11:45;6.10;;;4.93;;
23394;SDS011;11870;53.084;18.206;2023-05-19T13:14:19;5.00;;;3.50;;
23394;SDS011;11870;53.084;18.206;2023-05-19T13:16:45;4.65;;;2.30;;
23394;SDS011;11870;53.084;18.206;2023-05-19T13:19:13;3.95;;;2.72;;
23394;SDS011;11870;53.084;18.206;2023-05-19T13:21:41;3.20;;;1.90;;
23394;SDS011;11870;53.084;18.206;2023-05-19T13:24:08;3.80;;;2.00;;
23394;SDS011;11870;53.084;18.206;2023-05-19T13:26:34;8.68;;;6.03;;
23394;SDS011;11870;53.084;18.206;2023-05-19T13:29:01;3.92;;;2.17;;
23394;SDS011;11870;53.084;18.206;2023-05-19T13:31:27;2.72;;;1.77;;
23394;SDS011;11870;53.084;18.206;2023-05-19T13:33:53;4.43;;;2.20;;
23394;SDS011;11870;53.084;18.206;2023-05-19T13:36:19;3.88;;;2.15;;
23394;SDS011;11870;53.084;18.206;2023-05-19T13:38:45;2.50;;;1.60;;
23394;SDS011;11870;53.084;18.206;2023-05-19T13:41:11;4.78;;;1.75;;
23394;SDS011;11870;53.084;18.206;2023-05-19T13:43:37;4.28;;;1.85;;
23394;SDS011;11870;53.084;18.206;2023-05-19T13:46:03;2.72;;;1.95;;
23394;SDS011;11870;53.084;18.206;2023-05-19T13:48:29;3.95;;;2.03;;
23394;SDS011;11870;53.084;18.206;2023-05-19T13:50:55;3.17;;;1.85;;
23394;SDS011;11870;53.084;18.206;2023-05-19T13:53:21;3.83;;;1.85;;
23394;SDS011;11870;53.084;18.206;2023-05-19T13:55:46;6.43;;;1.73;;
23394;SDS011;11870;53.084;18.206;2023-05-19T13:58:13;4.32;;;1.67;;
23394;SDS011;11870;53.084;18.206;2023-05-19T14:00:41;2.17;;;1.80;;
23394;SDS011;11870;53.084;18.206;2023-05-19T14:03:07;2.67;;;1.80;;
23394;SDS011;11870;53.084;18.206;2023-05-19T14:05:33;3.65;;;2.40;;
23394;SDS011;11870;53.084;18.206;2023-05-19T14:08:00;4.22;;;2.10;;
23394;SDS011;11870;53.084;18.206;2023-05-19T14:10:27;4.78;;;2.00;;
23394;SDS011;11870;53.084;18.206;2023-05-19T14:12:53;2.40;;;1.55;;
23394;SDS011;11870;53.084;18.206;2023-05-19T14:15:23;6.97;;;2.40;;
23394;SDS011;11870;53.084;18.206;2023-05-19T14:17:50;7.07;;;2.10;;
23394;SDS011;11870;53.084;18.206;2023-05-19T14:20:17;2.45;;;1.40;;
23394;SDS011;11870;53.084;18.206;2023-05-19T14:22:43;2.90;;;1.95;;
23394;SDS011;11870;53.084;18.206;2023-05-19T14:25:09;5.43;;;2.00;;
23394;SDS011;11870;53.084;18.206;2023-05-19T14:27:35;1.92;;;1.70;;
23394;SDS011;11870;53.084;18.206;2023-05-19T14:30:01;5.43;;;2.28;;
23394;SDS011;11870;53.084;18.206;2023-05-19T14:32:27;3.50;;;2.00;;
23394;SDS011;11870;53.084;18.206;2023-05-19T14:34:53;2.63;;;1.60;;
23394;SDS011;11870;53.084;18.206;2023-05-19T14:37:20;2.85;;;2.10;;
23394;SDS011;11870;53.084;18.206;2023-05-19T14:39:45;3.90;;;2.28;;
23394;SDS011;11870;53.084;18.206;2023-05-19T14:42:12;4.18;;;2.03;;
23394;SDS011;11870;53.084;18.206;2023-05-19T14:44:38;3.70;;;2.05;;
23394;SDS011;11870;53.084;18.206;2023-05-19T14:47:04;3.00;;;1.58;;
23394;SDS011;11870;53.084;18.206;2023-05-19T14:49:31;4.72;;;3.20;;
23394;SDS011;11870;53.084;18.206;2023-05-19T14:51:57;4.70;;;2.85;;
23394;SDS011;11870;53.084;18.206;2023-05-19T14:54:23;4.10;;;2.15;;
23394;SDS011;11870;53.084;18.206;2023-05-19T14:56:49;3.10;;;2.10;;
23394;SDS011;11870;53.084;18.206;2023-05-19T14:59:15;2.13;;;1.77;;
23394;SDS011;11870;53.084;18.206;2023-05-19T15:01:41;3.55;;;2.10;;
23394;SDS011;11870;53.084;18.206;2023-05-19T15:04:06;3.70;;;2.13;;